LiveATC.Net - Listen to live air traffic control over the Internet! Contact for advertising information

ICAO: KSEE  IATA: SEE   Airport: Gillespie Field Airport
City: San Diego/El Cajon   State/Province: California
Country: United States   Continent: North America
KSEE METAR Weather: KSEE 281747Z 00000KT 10SM SKC 150/01 A3010
KSEE Flight Activity (FlightAware)
KSEE Airport Info   (AirNav) (iFlightPlanner)
KSEE VFR Sectional Chart   (iFlightPlanner) 
KSEE IFR Low Chart   (iFlightPlanner) 
KSEE Tower
Feed Status: UP   Listeners: 4
Listen right in your browser - requires Flash (in browser, requires Flash)
Click here to listen with your own player (launches your MP3 player)
KSEE Tower Audio Archives
Gillespie Tower120.700
Gillespie Tower123.800

Sponsored by: Rison Aviation, Kenny Shepherd, Brian Fink:


Unauthorized use prohibited. See Terms of Service

Find LiveATC Audio Streams

Airport/ARTCC Code

(e.g., 124.400, 128.75)
Site-wide search

Browse LiveATC Feeds
LiveATC Coverage Map
Top 50 LiveATC Feeds
Bad Weather Areas

Offer a LiveATC Feed
Press Inquiries

LiveATC on iPhone
LiveATC on Android

Windows Phone
Windows 8/10

LiveATC Mobile
(Mobile browser)

ATC Audio Archives
Interesting Recordings

LiveATC Forums

Home Page
Make a Donation
LiveATC Bookstore

Terms of Use
Privacy Policy

ATC/Radar Sites
U.S. ARTCC Freqs
Canadian Air Freqs


FAA Airport Status
Nat'l Airspace Status
Arrival Demand Charts

Server Software By:

Please make a donation to help us keep growing!